sensor_id;sensor_type;location;lat;lon;timestamp;P1;durP1;ratioP1;P2;durP2;ratioP2
19623;SDS011;9959;49.798;9.928;2023-04-15T00:01:18;15.60;;;8.13;;
19623;SDS011;9959;49.798;9.928;2023-04-15T00:03:45;14.13;;;8.13;;
19623;SDS011;9959;49.798;9.928;2023-04-15T00:06:16;14.77;;;8.38;;
19623;SDS011;9959;49.798;9.928;2023-04-15T00:08:42;12.73;;;7.50;;
19623;SDS011;9959;49.798;9.928;2023-04-15T00:11:09;18.88;;;7.60;;
19623;SDS011;9959;49.798;9.928;2023-04-15T00:13:36;15.38;;;8.35;;
19623;SDS011;9959;49.798;9.928;2023-04-15T00:16:04;12.48;;;7.55;;
19623;SDS011;9959;49.798;9.928;2023-04-15T00:18:33;13.55;;;7.85;;
19623;SDS011;9959;49.798;9.928;2023-04-15T00:21:01;19.38;;;8.73;;
19623;SDS011;9959;49.798;9.928;2023-04-15T00:23:28;18.13;;;8.05;;
19623;SDS011;9959;49.798;9.928;2023-04-15T00:25:55;13.98;;;8.20;;
19623;SDS011;9959;49.798;9.928;2023-04-15T00:28:22;16.25;;;8.27;;
19623;SDS011;9959;49.798;9.928;2023-04-15T00:30:49;14.68;;;8.43;;
19623;SDS011;9959;49.798;9.928;2023-04-15T00:33:16;15.25;;;7.82;;
19623;SDS011;9959;49.798;9.928;2023-04-15T00:35:43;14.45;;;7.57;;
19623;SDS011;9959;49.798;9.928;2023-04-15T00:38:10;12.65;;;8.02;;
19623;SDS011;9959;49.798;9.928;2023-04-15T00:40:37;13.55;;;7.80;;
19623;SDS011;9959;49.798;9.928;2023-04-15T00:43:05;20.05;;;8.40;;
19623;SDS011;9959;49.798;9.928;2023-04-15T00:45:32;16.40;;;8.30;;
19623;SDS011;9959;49.798;9.928;2023-04-15T00:47:59;14.40;;;8.02;;
19623;SDS011;9959;49.798;9.928;2023-04-15T00:50:26;12.73;;;7.97;;
19623;SDS011;9959;49.798;9.928;2023-04-15T00:52:53;12.60;;;8.18;;
19623;SDS011;9959;49.798;9.928;2023-04-15T00:55:20;13.25;;;8.20;;
19623;SDS011;9959;49.798;9.928;2023-04-15T00:57:47;16.42;;;9.30;;
19623;SDS011;9959;49.798;9.928;2023-04-15T01:00:14;18.67;;;8.77;;
19623;SDS011;9959;49.798;9.928;2023-04-15T01:02:41;16.02;;;8.25;;
19623;SDS011;9959;49.798;9.928;2023-04-15T01:05:09;12.30;;;7.53;;
19623;SDS011;9959;49.798;9.928;2023-04-15T01:07:36;14.73;;;7.63;;
19623;SDS011;9959;49.798;9.928;2023-04-15T01:10:03;11.65;;;7.18;;
19623;SDS011;9959;49.798;9.928;2023-04-15T01:12:31;13.07;;;8.00;;
19623;SDS011;9959;49.798;9.928;2023-04-15T01:14:59;10.98;;;7.07;;
19623;SDS011;9959;49.798;9.928;2023-04-15T01:17:28;12.63;;;7.50;;
19623;SDS011;9959;49.798;9.928;2023-04-15T01:19:55;14.75;;;7.35;;
19623;SDS011;9959;49.798;9.928;2023-04-15T01:22:26;12.93;;;7.13;;
19623;SDS011;9959;49.798;9.928;2023-04-15T01:24:54;14.45;;;7.72;;
19623;SDS011;9959;49.798;9.928;2023-04-15T01:27:27;11.60;;;7.45;;
19623;SDS011;9959;49.798;9.928;2023-04-15T01:29:54;15.13;;;7.88;;
19623;SDS011;9959;49.798;9.928;2023-04-15T01:32:21;13.77;;;7.25;;
19623;SDS011;9959;49.798;9.928;2023-04-15T01:34:49;11.95;;;7.15;;
19623;SDS011;9959;49.798;9.928;2023-04-15T01:37:16;10.43;;;6.88;;
19623;SDS011;9959;49.798;9.928;2023-04-15T01:39:43;14.20;;;8.02;;
19623;SDS011;9959;49.798;9.928;2023-04-15T01:42:10;12.32;;;7.55;;
19623;SDS011;9959;49.798;9.928;2023-04-15T01:44:37;14.57;;;8.15;;
19623;SDS011;9959;49.798;9.928;2023-04-15T01:47:03;15.30;;;8.18;;
19623;SDS011;9959;49.798;9.928;2023-04-15T01:49:31;14.07;;;8.32;;
19623;SDS011;9959;49.798;9.928;2023-04-15T01:51:58;15.27;;;8.43;;
19623;SDS011;9959;49.798;9.928;2023-04-15T01:54:25;14.38;;;8.40;;
19623;SDS011;9959;49.798;9.928;2023-04-15T01:56:52;14.32;;;8.00;;
19623;SDS011;9959;49.798;9.928;2023-04-15T01:59:19;12.40;;;7.80;;
19623;SDS011;9959;49.798;9.928;2023-04-15T02:01:47;11.35;;;7.15;;
19623;SDS011;9959;49.798;9.928;2023-04-15T02:04:13;14.40;;;7.90;;
19623;SDS011;9959;49.798;9.928;2023-04-15T02:06:43;17.80;;;8.25;;
19623;SDS011;9959;49.798;9.928;2023-04-15T02:09:10;13.57;;;8.20;;
19623;SDS011;9959;49.798;9.928;2023-04-15T02:11:36;16.02;;;7.97;;
19623;SDS011;9959;49.798;9.928;2023-04-15T02:14:04;13.52;;;8.70;;
19623;SDS011;9959;49.798;9.928;2023-04-15T02:16:31;16.77;;;8.40;;
19623;SDS011;9959;49.798;9.928;2023-04-15T02:18:59;12.40;;;7.43;;
19623;SDS011;9959;49.798;9.928;2023-04-15T02:21:26;14.88;;;7.10;;
19623;SDS011;9959;49.798;9.928;2023-04-15T02:23:53;15.77;;;7.93;;
19623;SDS011;9959;49.798;9.928;2023-04-15T02:26:21;14.00;;;8.48;;
19623;SDS011;9959;49.798;9.928;2023-04-15T02:28:48;17.13;;;9.13;;
19623;SDS011;9959;49.798;9.928;2023-04-15T02:31:16;17.05;;;8.25;;
19623;SDS011;9959;49.798;9.928;2023-04-15T02:33:44;14.23;;;7.75;;
19623;SDS011;9959;49.798;9.928;2023-04-15T02:36:11;14.85;;;8.57;;
19623;SDS011;9959;49.798;9.928;2023-04-15T02:38:37;15.45;;;7.90;;
19623;SDS011;9959;49.798;9.928;2023-04-15T02:41:08;15.57;;;7.85;;
19623;SDS011;9959;49.798;9.928;2023-04-15T02:43:35;15.75;;;8.20;;
19623;SDS011;9959;49.798;9.928;2023-04-15T02:46:03;15.10;;;7.85;;
19623;SDS011;9959;49.798;9.928;2023-04-15T02:48:30;17.70;;;7.65;;
19623;SDS011;9959;49.798;9.928;2023-04-15T02:51:10;15.98;;;7.22;;
19623;SDS011;9959;49.798;9.928;2023-04-15T02:53:37;13.32;;;7.20;;
19623;SDS011;9959;49.798;9.928;2023-04-15T02:56:04;16.05;;;7.57;;
19623;SDS011;9959;49.798;9.928;2023-04-15T02:58:32;16.00;;;8.30;;
19623;SDS011;9959;49.798;9.928;2023-04-15T03:01:00;14.73;;;7.47;;
19623;SDS011;9959;49.798;9.928;2023-04-15T03:03:27;15.48;;;8.38;;
19623;SDS011;9959;49.798;9.928;2023-04-15T03:05:54;14.52;;;7.45;;
19623;SDS011;9959;49.798;9.928;2023-04-15T03:08:21;15.43;;;8.10;;
19623;SDS011;9959;49.798;9.928;2023-04-15T03:10:48;11.75;;;7.70;;
19623;SDS011;9959;49.798;9.928;2023-04-15T03:13:14;19.30;;;7.95;;
19623;SDS011;9959;49.798;9.928;2023-04-15T03:15:41;14.27;;;7.72;;
19623;SDS011;9959;49.798;9.928;2023-04-15T03:18:08;17.25;;;7.93;;
19623;SDS011;9959;49.798;9.928;2023-04-15T03:20:35;14.32;;;7.38;;
19623;SDS011;9959;49.798;9.928;2023-04-15T03:23:02;13.85;;;7.30;;
19623;SDS011;9959;49.798;9.928;2023-04-15T03:25:29;13.43;;;7.38;;
19623;SDS011;9959;49.798;9.928;2023-04-15T03:27:56;13.38;;;6.95;;
19623;SDS011;9959;49.798;9.928;2023-04-15T03:30:23;10.95;;;6.38;;
19623;SDS011;9959;49.798;9.928;2023-04-15T03:32:50;16.55;;;7.40;;
19623;SDS011;9959;49.798;9.928;2023-04-15T03:35:17;12.45;;;6.65;;
19623;SDS011;9959;49.798;9.928;2023-04-15T03:37:44;13.13;;;7.25;;
19623;SDS011;9959;49.798;9.928;2023-04-15T03:40:11;10.82;;;6.63;;
19623;SDS011;9959;49.798;9.928;2023-04-15T03:42:38;11.70;;;6.78;;
19623;SDS011;9959;49.798;9.928;2023-04-15T03:45:05;10.40;;;6.63;;
19623;SDS011;9959;49.798;9.928;2023-04-15T03:47:33;13.13;;;7.00;;
19623;SDS011;9959;49.798;9.928;2023-04-15T03:50:00;11.88;;;6.93;;
19623;SDS011;9959;49.798;9.928;2023-04-15T03:52:27;13.10;;;7.05;;
19623;SDS011;9959;49.798;9.928;2023-04-15T03:54:54;11.60;;;6.90;;
19623;SDS011;9959;49.798;9.928;2023-04-15T03:57:21;10.25;;;6.53;;
19623;SDS011;9959;49.798;9.928;2023-04-15T03:59:48;10.80;;;6.70;;
19623;SDS011;9959;49.798;9.928;2023-04-15T04:02:14;12.02;;;6.78;;
19623;SDS011;9959;49.798;9.928;2023-04-15T04:04:41;11.40;;;6.80;;
19623;SDS011;9959;49.798;9.928;2023-04-15T04:07:13;11.73;;;6.60;;
19623;SDS011;9959;49.798;9.928;2023-04-15T04:09:43;10.25;;;6.43;;
19623;SDS011;9959;49.798;9.928;2023-04-15T04:12:12;10.07;;;6.45;;
19623;SDS011;9959;49.798;9.928;2023-04-15T04:14:39;11.93;;;7.10;;
19623;SDS011;9959;49.798;9.928;2023-04-15T04:17:06;16.42;;;7.03;;
19623;SDS011;9959;49.798;9.928;2023-04-15T04:19:33;14.73;;;7.03;;
19623;SDS011;9959;49.798;9.928;2023-04-15T04:22:00;11.45;;;6.70;;
19623;SDS011;9959;49.798;9.928;2023-04-15T04:24:27;13.60;;;7.43;;
19623;SDS011;9959;49.798;9.928;2023-04-15T04:26:54;11.30;;;7.28;;
19623;SDS011;9959;49.798;9.928;2023-04-15T04:29:22;11.35;;;6.82;;
19623;SDS011;9959;49.798;9.928;2023-04-15T04:31:49;13.15;;;7.28;;
19623;SDS011;9959;49.798;9.928;2023-04-15T04:34:16;15.63;;;7.28;;
19623;SDS011;9959;49.798;9.928;2023-04-15T04:36:43;13.13;;;6.90;;
19623;SDS011;9959;49.798;9.928;2023-04-15T04:39:10;14.63;;;8.73;;
19623;SDS011;9959;49.798;9.928;2023-04-15T04:41:37;10.65;;;7.10;;
19623;SDS011;9959;49.798;9.928;2023-04-15T04:44:03;15.35;;;6.68;;
19623;SDS011;9959;49.798;9.928;2023-04-15T04:46:30;11.70;;;6.97;;
19623;SDS011;9959;49.798;9.928;2023-04-15T04:48:57;15.45;;;6.60;;
19623;SDS011;9959;49.798;9.928;2023-04-15T04:51:24;15.10;;;7.22;;
19623;SDS011;9959;49.798;9.928;2023-04-15T04:53:51;11.27;;;7.07;;
19623;SDS011;9959;49.798;9.928;2023-04-15T04:56:19;11.77;;;6.85;;
19623;SDS011;9959;49.798;9.928;2023-04-15T04:58:46;15.10;;;7.20;;
19623;SDS011;9959;49.798;9.928;2023-04-15T05:01:13;13.65;;;6.93;;
19623;SDS011;9959;49.798;9.928;2023-04-15T05:03:40;13.77;;;6.68;;
19623;SDS011;9959;49.798;9.928;2023-04-15T05:06:07;10.57;;;6.55;;
19623;SDS011;9959;49.798;9.928;2023-04-15T05:08:34;14.38;;;6.70;;
19623;SDS011;9959;49.798;9.928;2023-04-15T05:11:03;11.82;;;6.32;;
19623;SDS011;9959;49.798;9.928;2023-04-15T05:13:30;10.70;;;6.38;;
19623;SDS011;9959;49.798;9.928;2023-04-15T05:15:57;11.48;;;6.25;;
19623;SDS011;9959;49.798;9.928;2023-04-15T05:18:24;12.65;;;6.15;;
19623;SDS011;9959;49.798;9.928;2023-04-15T05:20:51;15.20;;;6.75;;
19623;SDS011;9959;49.798;9.928;2023-04-15T05:23:18;9.80;;;6.22;;
19623;SDS011;9959;49.798;9.928;2023-04-15T05:25:44;11.88;;;6.30;;
19623;SDS011;9959;49.798;9.928;2023-04-15T05:28:11;13.70;;;6.93;;
19623;SDS011;9959;49.798;9.928;2023-04-15T05:30:38;10.55;;;6.65;;
19623;SDS011;9959;49.798;9.928;2023-04-15T05:33:05;10.20;;;6.20;;
19623;SDS011;9959;49.798;9.928;2023-04-15T05:35:32;10.77;;;6.63;;
19623;SDS011;9959;49.798;9.928;2023-04-15T05:37:59;10.98;;;5.90;;
19623;SDS011;9959;49.798;9.928;2023-04-15T05:40:26;9.88;;;5.78;;
19623;SDS011;9959;49.798;9.928;2023-04-15T05:42:53;10.85;;;6.40;;
19623;SDS011;9959;49.798;9.928;2023-04-15T05:45:20;16.10;;;5.78;;
19623;SDS011;9959;49.798;9.928;2023-04-15T05:47:47;10.38;;;6.22;;
19623;SDS011;9959;49.798;9.928;2023-04-15T05:50:19;9.77;;;5.97;;
19623;SDS011;9959;49.798;9.928;2023-04-15T05:52:46;9.43;;;5.43;;
19623;SDS011;9959;49.798;9.928;2023-04-15T05:55:13;8.13;;;5.70;;
19623;SDS011;9959;49.798;9.928;2023-04-15T05:57:40;9.23;;;6.00;;
19623;SDS011;9959;49.798;9.928;2023-04-15T06:00:07;10.75;;;5.72;;
19623;SDS011;9959;49.798;9.928;2023-04-15T06:02:34;10.50;;;6.05;;
19623;SDS011;9959;49.798;9.928;2023-04-15T06:05:02;8.10;;;5.40;;
19623;SDS011;9959;49.798;9.928;2023-04-15T06:07:29;13.15;;;5.70;;
19623;SDS011;9959;49.798;9.928;2023-04-15T06:09:56;12.48;;;5.78;;
19623;SDS011;9959;49.798;9.928;2023-04-15T06:12:23;12.88;;;5.60;;
19623;SDS011;9959;49.798;9.928;2023-04-15T06:14:49;7.57;;;4.95;;
19623;SDS011;9959;49.798;9.928;2023-04-15T06:17:16;10.15;;;5.75;;
19623;SDS011;9959;49.798;9.928;2023-04-15T06:19:44;10.13;;;5.65;;
19623;SDS011;9959;49.798;9.928;2023-04-15T06:22:12;13.30;;;5.57;;
19623;SDS011;9959;49.798;9.928;2023-04-15T06:24:39;11.30;;;5.38;;
19623;SDS011;9959;49.798;9.928;2023-04-15T06:27:06;10.82;;;5.18;;
19623;SDS011;9959;49.798;9.928;2023-04-15T06:29:33;8.15;;;5.10;;
19623;SDS011;9959;49.798;9.928;2023-04-15T06:32:00;10.98;;;5.82;;
19623;SDS011;9959;49.798;9.928;2023-04-15T06:34:27;8.73;;;5.20;;
19623;SDS011;9959;49.798;9.928;2023-04-15T06:36:53;7.47;;;4.95;;
19623;SDS011;9959;49.798;9.928;2023-04-15T06:39:20;8.45;;;5.15;;
19623;SDS011;9959;49.798;9.928;2023-04-15T06:41:47;9.85;;;5.65;;
19623;SDS011;9959;49.798;9.928;2023-04-15T06:44:14;8.27;;;5.05;;
19623;SDS011;9959;49.798;9.928;2023-04-15T06:46:41;9.35;;;5.15;;
19623;SDS011;9959;49.798;9.928;2023-04-15T06:49:08;6.07;;;4.97;;
19623;SDS011;9959;49.798;9.928;2023-04-15T06:51:35;8.52;;;4.75;;
19623;SDS011;9959;49.798;9.928;2023-04-15T06:54:02;9.38;;;4.93;;
19623;SDS011;9959;49.798;9.928;2023-04-15T06:56:31;10.73;;;5.13;;
19623;SDS011;9959;49.798;9.928;2023-04-15T06:58:58;9.65;;;4.97;;
19623;SDS011;9959;49.798;9.928;2023-04-15T07:01:26;11.43;;;6.38;;
19623;SDS011;9959;49.798;9.928;2023-04-15T07:03:53;9.60;;;5.00;;
19623;SDS011;9959;49.798;9.928;2023-04-15T07:06:20;7.78;;;5.07;;
19623;SDS011;9959;49.798;9.928;2023-04-15T07:08:47;7.72;;;5.03;;
19623;SDS011;9959;49.798;9.928;2023-04-15T07:11:14;7.50;;;4.55;;
19623;SDS011;9959;49.798;9.928;2023-04-15T07:13:41;8.68;;;4.75;;
19623;SDS011;9959;49.798;9.928;2023-04-15T07:16:07;8.00;;;5.10;;
19623;SDS011;9959;49.798;9.928;2023-04-15T07:18:34;8.07;;;5.10;;
19623;SDS011;9959;49.798;9.928;2023-04-15T07:21:01;6.47;;;4.88;;
19623;SDS011;9959;49.798;9.928;2023-04-15T07:23:28;6.53;;;4.75;;
19623;SDS011;9959;49.798;9.928;2023-04-15T07:25:55;12.32;;;4.65;;
19623;SDS011;9959;49.798;9.928;2023-04-15T07:28:22;7.30;;;4.25;;
19623;SDS011;9959;49.798;9.928;2023-04-15T07:30:52;6.50;;;5.03;;
19623;SDS011;9959;49.798;9.928;2023-04-15T07:33:19;8.80;;;4.50;;
19623;SDS011;9959;49.798;9.928;2023-04-15T07:35:46;9.23;;;4.93;;
19623;SDS011;9959;49.798;9.928;2023-04-15T07:38:13;8.18;;;5.25;;
19623;SDS011;9959;49.798;9.928;2023-04-15T07:40:40;8.82;;;5.05;;
19623;SDS011;9959;49.798;9.928;2023-04-15T07:43:07;10.18;;;5.50;;
19623;SDS011;9959;49.798;9.928;2023-04-15T07:45:35;10.48;;;5.47;;
19623;SDS011;9959;49.798;9.928;2023-04-15T07:48:02;8.35;;;5.55;;
19623;SDS011;9959;49.798;9.928;2023-04-15T07:50:29;7.47;;;5.35;;
19623;SDS011;9959;49.798;9.928;2023-04-15T07:52:56;6.40;;;5.20;;
19623;SDS011;9959;49.798;9.928;2023-04-15T07:55:23;7.97;;;5.60;;
19623;SDS011;9959;49.798;9.928;2023-04-15T07:57:52;8.90;;;5.50;;
19623;SDS011;9959;49.798;9.928;2023-04-15T08:00:19;9.68;;;5.93;;
19623;SDS011;9959;49.798;9.928;2023-04-15T08:02:46;8.13;;;5.45;;
19623;SDS011;9959;49.798;9.928;2023-04-15T08:05:13;11.35;;;6.30;;
19623;SDS011;9959;49.798;9.928;2023-04-15T08:07:41;9.70;;;5.70;;
19623;SDS011;9959;49.798;9.928;2023-04-15T08:10:08;8.30;;;5.68;;
19623;SDS011;9959;49.798;9.928;2023-04-15T08:12:35;10.98;;;5.93;;
19623;SDS011;9959;49.798;9.928;2023-04-15T08:15:02;9.63;;;6.50;;
19623;SDS011;9959;49.798;9.928;2023-04-15T08:17:29;8.63;;;5.57;;
19623;SDS011;9959;49.798;9.928;2023-04-15T08:19:56;7.90;;;5.50;;
19623;SDS011;9959;49.798;9.928;2023-04-15T08:22:23;8.45;;;5.85;;
19623;SDS011;9959;49.798;9.928;2023-04-15T08:24:50;9.23;;;6.10;;
19623;SDS011;9959;49.798;9.928;2023-04-15T08:27:17;8.98;;;5.25;;
19623;SDS011;9959;49.798;9.928;2023-04-15T08:29:44;9.07;;;4.63;;
19623;SDS011;9959;49.798;9.928;2023-04-15T08:32:11;7.13;;;4.50;;
19623;SDS011;9959;49.798;9.928;2023-04-15T08:34:38;7.15;;;4.95;;
19623;SDS011;9959;49.798;9.928;2023-04-15T08:37:05;8.20;;;4.85;;
19623;SDS011;9959;49.798;9.928;2023-04-15T08:39:32;7.20;;;4.53;;
19623;SDS011;9959;49.798;9.928;2023-04-15T08:41:59;8.90;;;5.05;;
19623;SDS011;9959;49.798;9.928;2023-04-15T08:44:33;6.70;;;4.60;;
19623;SDS011;9959;49.798;9.928;2023-04-15T08:47:01;9.18;;;4.55;;
19623;SDS011;9959;49.798;9.928;2023-04-15T08:49:28;5.68;;;4.53;;
19623;SDS011;9959;49.798;9.928;2023-04-15T08:51:59;7.35;;;4.70;;
19623;SDS011;9959;49.798;9.928;2023-04-15T08:54:26;6.75;;;4.30;;
19623;SDS011;9959;49.798;9.928;2023-04-15T08:56:57;6.07;;;4.25;;
19623;SDS011;9959;49.798;9.928;2023-04-15T08:59:24;7.43;;;4.82;;
19623;SDS011;9959;49.798;9.928;2023-04-15T09:01:52;8.07;;;4.15;;
19623;SDS011;9959;49.798;9.928;2023-04-15T09:04:20;5.53;;;4.45;;
19623;SDS011;9959;49.798;9.928;2023-04-15T09:06:47;6.10;;;3.90;;
19623;SDS011;9959;49.798;9.928;2023-04-15T09:09:14;6.60;;;4.30;;
19623;SDS011;9959;49.798;9.928;2023-04-15T09:11:41;5.25;;;4.35;;
19623;SDS011;9959;49.798;9.928;2023-04-15T09:14:08;5.88;;;4.43;;
19623;SDS011;9959;49.798;9.928;2023-04-15T09:19:24;5.78;;;3.53;;
19623;SDS011;9959;49.798;9.928;2023-04-15T09:21:52;4.85;;;3.90;;
19623;SDS011;9959;49.798;9.928;2023-04-15T09:24:24;5.55;;;3.55;;
19623;SDS011;9959;49.798;9.928;2023-04-15T09:26:53;7.75;;;3.85;;
19623;SDS011;9959;49.798;9.928;2023-04-15T09:29:23;6.43;;;3.40;;
19623;SDS011;9959;49.798;9.928;2023-04-15T09:31:52;4.30;;;2.88;;
19623;SDS011;9959;49.798;9.928;2023-04-15T09:34:19;5.13;;;3.20;;
19623;SDS011;9959;49.798;9.928;2023-04-15T09:39:16;5.05;;;3.42;;
19623;SDS011;9959;49.798;9.928;2023-04-15T09:41:43;5.65;;;3.60;;
19623;SDS011;9959;49.798;9.928;2023-04-15T09:47:06;6.03;;;3.30;;
19623;SDS011;9959;49.798;9.928;2023-04-15T09:49:33;4.07;;;3.08;;
19623;SDS011;9959;49.798;9.928;2023-04-15T09:52:00;7.05;;;3.25;;
19623;SDS011;9959;49.798;9.928;2023-04-15T09:54:34;5.80;;;3.08;;
19623;SDS011;9959;49.798;9.928;2023-04-15T09:57:06;5.15;;;3.00;;
19623;SDS011;9959;49.798;9.928;2023-04-15T09:59:35;4.53;;;3.05;;
19623;SDS011;9959;49.798;9.928;2023-04-15T10:02:03;5.55;;;2.50;;
19623;SDS011;9959;49.798;9.928;2023-04-15T10:04:34;3.83;;;2.97;;
19623;SDS011;9959;49.798;9.928;2023-04-15T10:07:04;3.58;;;2.35;;
19623;SDS011;9959;49.798;9.928;2023-04-15T10:09:37;5.15;;;2.72;;
19623;SDS011;9959;49.798;9.928;2023-04-15T10:12:04;4.47;;;2.80;;
19623;SDS011;9959;49.798;9.928;2023-04-15T10:14:32;3.80;;;2.88;;
19623;SDS011;9959;49.798;9.928;2023-04-15T10:17:01;4.28;;;2.70;;
19623;SDS011;9959;49.798;9.928;2023-04-15T10:19:32;7.32;;;2.17;;
19623;SDS011;9959;49.798;9.928;2023-04-15T10:21:59;3.83;;;2.10;;
19623;SDS011;9959;49.798;9.928;2023-04-15T10:24:27;4.70;;;2.20;;
19623;SDS011;9959;49.798;9.928;2023-04-15T10:26:57;5.38;;;2.30;;
19623;SDS011;9959;49.798;9.928;2023-04-15T10:29:24;3.83;;;2.30;;
19623;SDS011;9959;49.798;9.928;2023-04-15T10:31:55;4.25;;;2.45;;
19623;SDS011;9959;49.798;9.928;2023-04-15T10:34:22;2.95;;;2.13;;
19623;SDS011;9959;49.798;9.928;2023-04-15T10:36:50;2.42;;;1.90;;
19623;SDS011;9959;49.798;9.928;2023-04-15T10:42:06;6.20;;;2.47;;
19623;SDS011;9959;49.798;9.928;2023-04-15T10:44:36;3.35;;;2.20;;
19623;SDS011;9959;49.798;9.928;2023-04-15T10:47:12;2.63;;;2.20;;
19623;SDS011;9959;49.798;9.928;2023-04-15T10:49:48;4.32;;;2.22;;
19623;SDS011;9959;49.798;9.928;2023-04-15T10:52:16;3.15;;;1.90;;
19623;SDS011;9959;49.798;9.928;2023-04-15T10:54:48;4.78;;;2.08;;
19623;SDS011;9959;49.798;9.928;2023-04-15T10:57:20;2.65;;;2.08;;
19623;SDS011;9959;49.798;9.928;2023-04-15T10:59:59;3.65;;;1.67;;
19623;SDS011;9959;49.798;9.928;2023-04-15T11:08:08;3.38;;;1.50;;
19623;SDS011;9959;49.798;9.928;2023-04-15T11:15:39;2.15;;;1.25;;
19623;SDS011;9959;49.798;9.928;2023-04-15T11:18:12;1.80;;;1.40;;
19623;SDS011;9959;49.798;9.928;2023-04-15T11:20:46;1.90;;;1.48;;
19623;SDS011;9959;49.798;9.928;2023-04-15T11:23:13;1.98;;;1.60;;
19623;SDS011;9959;49.798;9.928;2023-04-15T11:25:41;1.63;;;1.40;;
19623;SDS011;9959;49.798;9.928;2023-04-15T11:28:09;2.17;;;1.60;;
19623;SDS011;9959;49.798;9.928;2023-04-15T11:30:38;2.15;;;1.50;;
19623;SDS011;9959;49.798;9.928;2023-04-15T11:33:06;3.67;;;1.80;;
19623;SDS011;9959;49.798;9.928;2023-04-15T11:35:34;2.30;;;2.00;;
19623;SDS011;9959;49.798;9.928;2023-04-15T11:38:02;2.30;;;1.73;;
19623;SDS011;9959;49.798;9.928;2023-04-15T11:40:29;2.22;;;1.75;;
19623;SDS011;9959;49.798;9.928;2023-04-15T11:45:36;1.98;;;1.70;;
19623;SDS011;9959;49.798;9.928;2023-04-15T11:48:10;2.42;;;1.85;;
19623;SDS011;9959;49.798;9.928;2023-04-15T11:50:38;2.28;;;1.85;;
19623;SDS011;9959;49.798;9.928;2023-04-15T11:53:07;1.90;;;1.70;;
19623;SDS011;9959;49.798;9.928;2023-04-15T11:55:48;1.85;;;1.63;;
19623;SDS011;9959;49.798;9.928;2023-04-15T11:58:18;2.70;;;1.95;;
19623;SDS011;9959;49.798;9.928;2023-04-15T12:00:50;2.58;;;1.90;;
19623;SDS011;9959;49.798;9.928;2023-04-15T12:03:29;2.42;;;2.10;;
19623;SDS011;9959;49.798;9.928;2023-04-15T12:06:04;2.80;;;1.98;;
19623;SDS011;9959;49.798;9.928;2023-04-15T12:11:33;2.97;;;2.25;;
19623;SDS011;9959;49.798;9.928;2023-04-15T12:16:35;3.25;;;2.17;;
19623;SDS011;9959;49.798;9.928;2023-04-15T12:19:21;2.95;;;2.20;;
19623;SDS011;9959;49.798;9.928;2023-04-15T12:22:11;3.05;;;2.33;;
19623;SDS011;9959;49.798;9.928;2023-04-15T12:24:41;2.20;;;1.70;;
19623;SDS011;9959;49.798;9.928;2023-04-15T12:27:14;6.00;;;2.40;;
19623;SDS011;9959;49.798;9.928;2023-04-15T12:29:42;3.03;;;2.30;;
19623;SDS011;9959;49.798;9.928;2023-04-15T12:32:12;4.22;;;2.38;;
19623;SDS011;9959;49.798;9.928;2023-04-15T12:34:41;2.30;;;2.10;;
19623;SDS011;9959;49.798;9.928;2023-04-15T12:37:10;3.50;;;2.33;;
19623;SDS011;9959;49.798;9.928;2023-04-15T12:39:41;4.90;;;2.45;;
19623;SDS011;9959;49.798;9.928;2023-04-15T12:42:10;3.60;;;2.58;;
19623;SDS011;9959;49.798;9.928;2023-04-15T12:44:37;3.03;;;2.10;;
19623;SDS011;9959;49.798;9.928;2023-04-15T12:47:05;2.40;;;2.00;;
19623;SDS011;9959;49.798;9.928;2023-04-15T12:49:33;5.28;;;2.55;;
19623;SDS011;9959;49.798;9.928;2023-04-15T12:52:00;4.05;;;2.92;;
19623;SDS011;9959;49.798;9.928;2023-04-15T12:54:29;3.92;;;2.75;;
19623;SDS011;9959;49.798;9.928;2023-04-15T12:56:57;3.85;;;2.58;;
19623;SDS011;9959;49.798;9.928;2023-04-15T12:59:25;4.65;;;2.58;;
19623;SDS011;9959;49.798;9.928;2023-04-15T13:01:52;3.08;;;2.42;;
19623;SDS011;9959;49.798;9.928;2023-04-15T13:04:19;3.47;;;2.20;;
19623;SDS011;9959;49.798;9.928;2023-04-15T13:06:47;3.03;;;2.20;;
19623;SDS011;9959;49.798;9.928;2023-04-15T13:09:14;3.30;;;2.28;;
19623;SDS011;9959;49.798;9.928;2023-04-15T13:11:41;3.08;;;2.10;;
19623;SDS011;9959;49.798;9.928;2023-04-15T13:14:09;3.97;;;2.38;;
19623;SDS011;9959;49.798;9.928;2023-04-15T13:16:38;3.83;;;2.10;;
19623;SDS011;9959;49.798;9.928;2023-04-15T13:19:06;2.47;;;2.28;;
19623;SDS011;9959;49.798;9.928;2023-04-15T13:21:33;2.72;;;2.25;;
19623;SDS011;9959;49.798;9.928;2023-04-15T13:24:01;2.50;;;2.28;;
19623;SDS011;9959;49.798;9.928;2023-04-15T13:26:29;3.63;;;2.35;;
19623;SDS011;9959;49.798;9.928;2023-04-15T13:28:57;4.10;;;2.25;;
19623;SDS011;9959;49.798;9.928;2023-04-15T13:31:25;2.72;;;2.20;;
19623;SDS011;9959;49.798;9.928;2023-04-15T13:33:52;5.18;;;2.22;;
19623;SDS011;9959;49.798;9.928;2023-04-15T13:36:20;4.55;;;1.90;;
19623;SDS011;9959;49.798;9.928;2023-04-15T13:38:46;2.40;;;1.95;;
19623;SDS011;9959;49.798;9.928;2023-04-15T13:41:16;4.30;;;1.85;;
19623;SDS011;9959;49.798;9.928;2023-04-15T13:43:43;2.05;;;1.60;;
19623;SDS011;9959;49.798;9.928;2023-04-15T13:46:10;1.65;;;1.48;;
19623;SDS011;9959;49.798;9.928;2023-04-15T13:48:37;1.92;;;1.60;;
19623;SDS011;9959;49.798;9.928;2023-04-15T13:51:03;2.58;;;1.58;;
19623;SDS011;9959;49.798;9.928;2023-04-15T13:53:30;2.03;;;1.80;;
19623;SDS011;9959;49.798;9.928;2023-04-15T13:56:08;2.33;;;1.80;;
19623;SDS011;9959;49.798;9.928;2023-04-15T13:58:35;2.88;;;1.90;;
19623;SDS011;9959;49.798;9.928;2023-04-15T14:01:03;2.38;;;1.75;;
19623;SDS011;9959;49.798;9.928;2023-04-15T14:03:34;2.78;;;1.90;;
19623;SDS011;9959;49.798;9.928;2023-04-15T14:06:02;2.47;;;1.90;;
19623;SDS011;9959;49.798;9.928;2023-04-15T14:08:30;2.75;;;2.13;;
19623;SDS011;9959;49.798;9.928;2023-04-15T14:10:57;2.33;;;2.00;;
19623;SDS011;9959;49.798;9.928;2023-04-15T14:13:24;2.60;;;2.03;;
19623;SDS011;9959;49.798;9.928;2023-04-15T14:15:51;4.50;;;1.90;;
19623;SDS011;9959;49.798;9.928;2023-04-15T14:18:18;2.67;;;1.92;;
19623;SDS011;9959;49.798;9.928;2023-04-15T14:20:45;2.78;;;2.05;;
19623;SDS011;9959;49.798;9.928;2023-04-15T14:23:12;2.20;;;1.70;;
19623;SDS011;9959;49.798;9.928;2023-04-15T14:25:39;3.72;;;2.00;;
19623;SDS011;9959;49.798;9.928;2023-04-15T14:28:06;2.25;;;2.00;;
19623;SDS011;9959;49.798;9.928;2023-04-15T14:30:33;2.75;;;2.42;;
19623;SDS011;9959;49.798;9.928;2023-04-15T14:33:01;2.70;;;2.05;;
19623;SDS011;9959;49.798;9.928;2023-04-15T14:35:29;2.20;;;2.00;;
19623;SDS011;9959;49.798;9.928;2023-04-15T14:37:56;2.83;;;2.10;;
19623;SDS011;9959;49.798;9.928;2023-04-15T14:40:23;3.08;;;1.70;;
19623;SDS011;9959;49.798;9.928;2023-04-15T14:42:50;3.95;;;2.80;;
19623;SDS011;9959;49.798;9.928;2023-04-15T14:45:16;3.28;;;2.22;;
19623;SDS011;9959;49.798;9.928;2023-04-15T14:47:43;4.90;;;2.03;;
19623;SDS011;9959;49.798;9.928;2023-04-15T14:50:10;3.20;;;2.00;;
19623;SDS011;9959;49.798;9.928;2023-04-15T14:52:38;2.97;;;2.30;;
19623;SDS011;9959;49.798;9.928;2023-04-15T14:55:05;3.20;;;2.03;;
19623;SDS011;9959;49.798;9.928;2023-04-15T14:57:34;5.32;;;2.55;;
19623;SDS011;9959;49.798;9.928;2023-04-15T15:00:02;3.20;;;2.50;;
19623;SDS011;9959;49.798;9.928;2023-04-15T15:02:29;4.07;;;3.03;;
19623;SDS011;9959;49.798;9.928;2023-04-15T15:05:05;3.63;;;2.80;;
19623;SDS011;9959;49.798;9.928;2023-04-15T15:07:33;3.10;;;2.30;;
19623;SDS011;9959;49.798;9.928;2023-04-15T15:10:02;3.25;;;2.45;;
19623;SDS011;9959;49.798;9.928;2023-04-15T15:12:29;2.60;;;2.20;;
19623;SDS011;9959;49.798;9.928;2023-04-15T15:14:58;3.53;;;2.55;;
19623;SDS011;9959;49.798;9.928;2023-04-15T15:17:26;4.00;;;2.55;;
19623;SDS011;9959;49.798;9.928;2023-04-15T15:19:53;2.95;;;2.40;;
19623;SDS011;9959;49.798;9.928;2023-04-15T15:22:20;6.80;;;2.75;;
19623;SDS011;9959;49.798;9.928;2023-04-15T15:24:47;2.75;;;2.38;;
19623;SDS011;9959;49.798;9.928;2023-04-15T15:27:14;5.13;;;2.40;;
19623;SDS011;9959;49.798;9.928;2023-04-15T15:29:41;4.63;;;2.83;;